Cedar Point, North Carolina
Current Conditions -  °F | °C
As of 7:57 AM on Wednesday 22 Oct 2014 (Local Time) from KNJM Reporting Station
Few Clouds Few Clouds  
Wind Chill: 11°   Ceiling: Unl
Heat Index: 11°   Visibility: 10mi
Dew Point:   Wind: 7mph
Humidity: 80%   Direction: 320°NW
Pressure: 29.92"   Gusts: NA
Location:  34.7017°N, 77.1399°W
Report Text: KNJM 221157Z COR 32006KT 10SM FEW085 11/07 A2992 RMK SLP134 T01060072 10150 20106 53004
Loading
Personal Weather Stations






























Interactive Weather Map
Tropical Storm Tracking
New forecast layout! Learn more

10-Day Weather Forecast

Advertisements
Track Severe Weather on mobile